Pagrindinis puslapis
METAR-TAF:

METAR-TAF

Oro uostai :

Bahreino tarptautinis oro uostas

Bahreinas, Bahreinas

platuma: 26-16N, ilguma: 050-39E, Aukštis: 2 m

Dabartinis oras

Ataskaita buvo paskelbta 49 minutes, ne 05:00 UTC
Vėjas 2 kt nuo kintamojo kryptimis
Temperatūra 39°C
Drėgmė 43%
Slėgis 996 hPa
Matomumas 10 km arba daugiau
nėra debesų žemiau 1500 m ir nėra kamuolinių lietaus debesų

METAR: OBBI 110500Z VRB02KT CAVOK 39/24 Q0996 NOSIG

Laikas: 08:49 (05:49 UTC)

Prognozė

Ataskaita buvo paskelbta 49 minutes, ne 05:00 UTC
Prognozė galioja nuo 11 metu 06 UTC su 12 metu 12 UTC
Vėjas 5 kt nuo kintamojo kryptimis
Matomumas 10 km arba daugiau
nėra debesų žemiau 1500 m ir nėra kamuolinių lietaus debesų
Tapsmas
nuo 11 metu 11 UTC su 11 metu 13 UTC
Vėjas 10 kt iš Rytų/Šiaurės Rytų
Tapsmas
nuo 11 metu 21 UTC su 11 metu 23 UTC
Vėjas 5 kt nuo kintamojo kryptimis
Tikimybė 30% :
Laikinai
nuo 12 metu 00 UTC su 12 metu 05 UTC
Matomumas: 5000 m
migla

TAF: OBBI 110500Z 1106/1212 VRB05KT CAVOK BECMG 1111/1113 07010KT BECMG 1121/1123 VRB05KT PROB30 TEMPO 1200/1205 5000 HZ

Orai ataskaitas ir orų prognozės (METAR, TAF).

turimą stotys yra geltonos ir raudonos taškus žemėlapyje.

Perkelti pele per norėdami pamatyti stoties vardą.

Tada spustelėkite, norėdami matyti oro stebėjimo ir prognozės.

Norėdami pakeisti žemėlapį: spustelėkite ant žalios mygtukų su juodo kryžiaus žemyn,; žalią mygtuką su brūkšneliu, jei norite nutolinti; arba žalių rodyklių gretimoms žemėlapius.


METAR-TAF: